createdAt,value
2023-05-14T00:00:24.598Z,9.20
2023-05-14T00:03:26.978Z,9.30
2023-05-14T00:06:29.116Z,9.27
2023-05-14T00:09:32.091Z,8.98
2023-05-14T00:12:34.199Z,9.10
2023-05-14T00:15:36.292Z,9.60
2023-05-14T00:18:38.616Z,8.97
2023-05-14T00:21:40.918Z,10.05
2023-05-14T00:24:42.986Z,10.30
2023-05-14T00:27:45.075Z,10.40
2023-05-14T00:30:47.151Z,8.97
2023-05-14T00:33:50.826Z,9.10
2023-05-14T00:36:52.943Z,9.98
2023-05-14T00:39:55.069Z,8.70
2023-05-14T00:42:57.163Z,9.77
2023-05-14T00:45:59.316Z,9.60
2023-05-14T00:49:01.630Z,9.77
2023-05-14T00:52:03.727Z,9.50
2023-05-14T00:55:06.339Z,9.00
2023-05-14T00:58:10.607Z,9.60
2023-05-14T01:01:15.416Z,9.55
2023-05-14T01:04:17.921Z,9.55
2023-05-14T01:07:32.077Z,9.57
2023-05-14T01:10:45.966Z,9.50
2023-05-14T01:14:06.825Z,9.90
2023-05-14T01:17:10.891Z,10.02
2023-05-14T01:20:13.082Z,10.00
2023-05-14T01:23:15.083Z,11.07
2023-05-14T01:26:17.281Z,10.13
2023-05-14T01:29:23.312Z,10.82
2023-05-14T01:32:26.092Z,10.40
2023-05-14T01:35:29.559Z,10.87
2023-05-14T01:38:34.252Z,10.23
2023-05-14T01:41:37.352Z,10.40
2023-05-14T01:44:39.356Z,10.63
2023-05-14T01:47:41.516Z,10.30
2023-05-14T01:50:43.614Z,10.43
2023-05-14T01:53:45.718Z,11.00
2023-05-14T01:56:47.796Z,10.30
2023-05-14T01:59:49.807Z,11.38
2023-05-14T02:02:51.911Z,12.52
2023-05-14T02:05:54.001Z,10.93
2023-05-14T02:08:56.164Z,11.10
2023-05-14T02:11:58.260Z,11.25
2023-05-14T02:15:00.495Z,11.02
2023-05-14T02:18:03.211Z,11.60
2023-05-14T02:21:05.789Z,10.25
2023-05-14T02:24:07.861Z,12.38
2023-05-14T02:27:12.850Z,11.98
2023-05-14T02:30:15.075Z,10.67
2023-05-14T02:33:17.704Z,10.57
2023-05-14T02:36:19.804Z,11.45
2023-05-14T02:39:21.867Z,11.57
2023-05-14T02:42:23.879Z,11.80
2023-05-14T02:45:26.827Z,12.68
2023-05-14T02:48:28.902Z,11.45
2023-05-14T02:51:30.936Z,11.77
2023-05-14T02:54:33.014Z,11.30
2023-05-14T02:57:35.126Z,11.13
2023-05-14T03:00:37.160Z,11.57
2023-05-14T03:03:39.999Z,11.00
2023-05-14T03:06:42.547Z,11.73
2023-05-14T03:09:45.331Z,11.77
2023-05-14T03:12:47.733Z,11.38
2023-05-14T03:15:54.843Z,11.97
2023-05-14T03:18:57.611Z,10.98
2023-05-14T03:21:59.677Z,10.30
2023-05-14T03:25:01.677Z,10.63
2023-05-14T03:28:03.993Z,11.63
2023-05-14T03:31:06.097Z,12.05
2023-05-14T03:34:08.161Z,13.18
2023-05-14T03:37:10.453Z,12.32
2023-05-14T03:40:12.635Z,11.32
2023-05-14T03:43:14.803Z,12.00
2023-05-14T03:46:17.547Z,10.52
2023-05-14T03:49:19.634Z,10.60
2023-05-14T03:52:21.769Z,10.48
2023-05-14T03:55:23.870Z,9.77
2023-05-14T03:58:25.981Z,10.05
2023-05-14T04:01:28.583Z,10.10
2023-05-14T04:04:33.443Z,10.48
2023-05-14T04:07:37.028Z,10.82
2023-05-14T04:10:39.111Z,9.90
2023-05-14T04:13:41.232Z,9.77
2023-05-14T04:16:44.758Z,10.73
2023-05-14T04:19:46.813Z,9.02
2023-05-14T04:22:48.841Z,9.43
2023-05-14T04:25:50.816Z,9.10
2023-05-14T04:28:53.055Z,9.45
2023-05-14T04:31:55.094Z,8.70
2023-05-14T04:34:57.149Z,8.57
2023-05-14T04:37:59.391Z,8.93
2023-05-14T04:41:02.246Z,9.23
2023-05-14T04:44:04.372Z,8.80
2023-05-14T04:47:07.090Z,8.63
2023-05-14T04:50:09.866Z,7.93
2023-05-14T04:53:11.940Z,8.70
2023-05-14T04:56:14.063Z,9.77
2023-05-14T04:59:16.633Z,9.43
2023-05-14T05:02:18.621Z,8.65
2023-05-14T05:05:21.020Z,8.98
2023-05-14T05:08:23.328Z,9.97
2023-05-14T05:11:25.366Z,8.93
2023-05-14T05:14:27.664Z,9.50
2023-05-14T05:17:29.807Z,8.23
2023-05-14T05:20:32.603Z,8.43
2023-05-14T05:23:34.630Z,8.67
2023-05-14T05:26:37.068Z,9.18
2023-05-14T05:29:39.066Z,8.63
2023-05-14T05:32:41.219Z,7.83
2023-05-14T05:35:44.572Z,10.47
2023-05-14T05:38:46.612Z,9.40
2023-05-14T05:41:48.733Z,8.40
2023-05-14T05:44:50.747Z,9.75
2023-05-14T05:47:52.979Z,8.53
2023-05-14T05:50:55.031Z,8.60
2023-05-14T05:53:57.036Z,8.60
2023-05-14T05:56:59.624Z,8.55
2023-05-14T06:00:08.018Z,8.73
2023-05-14T06:03:14.766Z,8.57
2023-05-14T06:06:16.955Z,8.45
2023-05-14T06:09:19.042Z,8.55
2023-05-14T06:12:21.865Z,9.63
2023-05-14T06:15:23.901Z,8.13
2023-05-14T06:18:25.942Z,8.00
2023-05-14T06:21:28.019Z,8.52
2023-05-14T06:24:30.040Z,9.05
2023-05-14T06:27:32.117Z,8.43
2023-05-14T06:30:34.127Z,8.00
2023-05-14T06:33:36.554Z,9.55
2023-05-14T06:36:38.691Z,8.88
2023-05-14T06:39:44.220Z,8.50
2023-05-14T06:42:46.200Z,7.93
2023-05-14T06:45:51.898Z,9.02
2023-05-14T06:48:53.975Z,10.50
2023-05-14T06:51:56.048Z,11.25
2023-05-14T06:54:58.196Z,9.40
2023-05-14T06:58:00.179Z,8.23
2023-05-14T07:01:02.316Z,9.38
2023-05-14T07:04:04.435Z,9.18
2023-05-14T07:07:06.512Z,9.73
2023-05-14T07:10:08.680Z,9.67
2023-05-14T07:13:10.769Z,9.27
2023-05-14T07:16:12.890Z,9.82
2023-05-14T07:19:15.045Z,10.40
2023-05-14T07:22:17.172Z,10.87
2023-05-14T07:25:19.242Z,9.70
2023-05-14T07:28:21.267Z,9.38
2023-05-14T07:31:23.525Z,10.13
2023-05-14T07:34:25.597Z,10.27
2023-05-14T07:37:27.692Z,10.73
2023-05-14T07:40:29.704Z,10.73
2023-05-14T07:43:31.822Z,10.82
2023-05-14T07:46:33.893Z,12.25
2023-05-14T07:49:35.971Z,11.02
2023-05-14T07:52:38.016Z,9.27
2023-05-14T07:55:40.355Z,9.47
2023-05-14T07:58:42.397Z,11.40
2023-05-14T08:01:44.538Z,9.63
2023-05-14T08:04:46.650Z,9.68
2023-05-14T08:07:48.703Z,9.47
2023-05-14T08:10:51.085Z,10.00
2023-05-14T08:13:53.202Z,8.93
2023-05-14T08:16:55.329Z,9.52
2023-05-14T08:19:57.461Z,9.30
2023-05-14T08:22:59.577Z,8.67
2023-05-14T08:26:01.601Z,10.10
2023-05-14T08:29:03.604Z,9.55
2023-05-14T08:32:15.608Z,9.50
2023-05-14T08:35:24.477Z,10.55
2023-05-14T08:38:26.492Z,8.63
2023-05-14T08:41:28.526Z,9.63
2023-05-14T08:44:38.842Z,8.90
2023-05-14T08:47:40.931Z,9.75
2023-05-14T08:50:43.790Z,8.70
2023-05-14T08:53:45.801Z,9.43
2023-05-14T08:56:49.374Z,9.50
2023-05-14T08:59:53.467Z,9.15
2023-05-14T09:02:55.915Z,8.57
2023-05-14T09:06:00.079Z,9.50
2023-05-14T09:09:02.585Z,9.17
2023-05-14T09:12:04.825Z,8.93
2023-05-14T09:15:07.079Z,9.98
2023-05-14T09:18:09.976Z,10.82
2023-05-14T09:21:13.586Z,10.95
2023-05-14T09:24:22.346Z,9.97
2023-05-14T09:27:26.004Z,9.60
2023-05-14T09:30:28.273Z,9.32
2023-05-14T09:33:31.089Z,9.93
2023-05-14T09:36:34.520Z,9.75
2023-05-14T09:39:37.377Z,9.30
2023-05-14T09:42:39.898Z,9.23
2023-05-14T09:45:42.502Z,9.25
2023-05-14T09:48:45.990Z,9.07
2023-05-14T09:51:51.366Z,9.52
2023-05-14T09:54:53.638Z,9.03
2023-05-14T09:57:55.714Z,8.73
2023-05-14T10:00:58.422Z,10.15
2023-05-14T10:04:04.220Z,12.73
2023-05-14T10:07:06.550Z,9.75
2023-05-14T10:10:11.704Z,9.17
2023-05-14T10:13:15.123Z,8.97
2023-05-14T10:16:24.724Z,9.55
2023-05-14T10:19:28.144Z,9.38
2023-05-14T10:22:32.110Z,8.90
2023-05-14T10:25:37.577Z,9.47
2023-05-14T10:28:39.935Z,9.20
2023-05-14T10:31:54.658Z,9.23
2023-05-14T10:34:56.675Z,9.93
2023-05-14T10:37:59.041Z,9.43
2023-05-14T10:41:10.266Z,10.10
2023-05-14T10:44:12.563Z,11.00
2023-05-14T10:47:16.341Z,10.50
2023-05-14T10:50:18.535Z,9.52
2023-05-14T10:53:21.252Z,10.25
2023-05-14T10:56:23.411Z,10.20
2023-05-14T10:59:27.473Z,9.53
2023-05-14T11:02:33.340Z,10.80
2023-05-14T11:05:37.365Z,9.88
2023-05-14T11:08:39.909Z,10.38
2023-05-14T11:11:42.054Z,11.50
2023-05-14T11:14:44.125Z,9.60
2023-05-14T11:17:47.398Z,10.18
2023-05-14T11:20:49.549Z,10.20
2023-05-14T11:23:51.551Z,11.18
2023-05-14T11:26:55.826Z,11.40
2023-05-14T11:29:58.263Z,10.80
2023-05-14T11:33:01.977Z,10.32
2023-05-14T11:36:04.578Z,6.75
2023-05-14T11:39:08.042Z,6.15
2023-05-14T11:42:14.833Z,5.87
2023-05-14T11:45:25.445Z,5.00
2023-05-14T11:48:27.495Z,5.43
2023-05-14T11:51:29.563Z,5.95
2023-05-14T11:54:32.797Z,6.13
2023-05-14T11:57:35.273Z,5.07
2023-05-14T12:00:38.187Z,4.47
2023-05-14T12:03:40.397Z,4.80
2023-05-14T12:06:42.653Z,4.97
2023-05-14T12:09:51.648Z,5.50
2023-05-14T12:12:53.905Z,6.30
2023-05-14T12:15:57.899Z,9.13
2023-05-14T12:19:01.844Z,9.15
2023-05-14T12:22:03.981Z,8.38
2023-05-14T12:25:11.424Z,7.85
2023-05-14T12:28:14.448Z,8.80
2023-05-14T12:31:16.529Z,7.43
2023-05-14T12:34:18.614Z,7.75
2023-05-14T12:37:20.714Z,6.60
2023-05-14T12:40:22.933Z,7.03
2023-05-14T12:43:25.201Z,7.90
2023-05-14T12:46:27.742Z,7.40
2023-05-14T12:49:29.831Z,7.75
2023-05-14T12:55:37.151Z,7.68
2023-05-14T12:58:39.214Z,7.73
2023-05-14T13:01:41.599Z,8.00
2023-05-14T13:04:43.811Z,7.20
2023-05-14T13:07:45.977Z,7.50
2023-05-14T13:10:48.221Z,7.50
2023-05-14T13:13:50.712Z,6.83
2023-05-14T13:16:52.869Z,7.00
2023-05-14T13:19:54.986Z,8.30
2023-05-14T13:22:57.369Z,7.32
2023-05-14T13:25:59.394Z,9.48
2023-05-14T13:29:01.390Z,8.83
2023-05-14T13:32:03.697Z,9.50
2023-05-14T13:35:06.067Z,8.82
2023-05-14T13:38:08.099Z,10.27
2023-05-14T13:41:10.159Z,9.70
2023-05-14T13:44:12.179Z,11.80
2023-05-14T13:47:14.248Z,10.97
2023-05-14T13:50:16.521Z,8.77
2023-05-14T13:53:21.776Z,8.20
2023-05-14T13:56:23.844Z,8.85
2023-05-14T13:59:27.924Z,7.77
2023-05-14T14:02:30.381Z,7.50
2023-05-14T14:05:33.722Z,7.45
2023-05-14T14:08:36.044Z,7.85
2023-05-14T14:11:38.124Z,8.43
2023-05-14T14:14:40.202Z,7.50
2023-05-14T14:17:42.355Z,7.00
2023-05-14T14:20:44.417Z,6.68
2023-05-14T14:23:47.068Z,7.20
2023-05-14T14:26:49.125Z,6.78
2023-05-14T14:29:51.210Z,6.13
2023-05-14T14:32:53.470Z,6.57
2023-05-14T14:35:55.991Z,6.55
2023-05-14T14:38:58.148Z,8.27
2023-05-14T14:42:00.153Z,10.07
2023-05-14T14:45:02.193Z,8.53
2023-05-14T14:48:22.958Z,7.78
2023-05-14T14:51:25.011Z,8.27
2023-05-14T14:54:27.012Z,8.60
2023-05-14T14:57:29.135Z,8.63
2023-05-14T15:00:31.218Z,10.83
2023-05-14T15:03:33.377Z,9.23
2023-05-14T15:06:35.507Z,9.70
2023-05-14T15:09:37.677Z,7.68
2023-05-14T15:12:39.750Z,8.37
2023-05-14T15:15:41.784Z,8.53
2023-05-14T15:18:43.936Z,8.23
2023-05-14T15:21:46.182Z,9.40
2023-05-14T15:24:48.213Z,10.90
2023-05-14T15:27:50.485Z,10.47
2023-05-14T15:30:52.984Z,9.97
2023-05-14T15:33:56.157Z,10.13
2023-05-14T15:36:58.259Z,9.23
2023-05-14T15:40:00.402Z,9.38
2023-05-14T15:43:02.641Z,9.17
2023-05-14T15:46:04.672Z,8.48
2023-05-14T15:49:06.749Z,8.90
2023-05-14T15:52:08.794Z,8.82
2023-05-14T15:55:10.924Z,9.60
2023-05-14T15:58:12.981Z,10.30
2023-05-14T16:01:15.010Z,10.10
2023-05-14T16:04:17.065Z,9.95
2023-05-14T16:07:19.120Z,10.82
2023-05-14T16:10:21.704Z,10.63
2023-05-14T16:13:23.882Z,9.40
2023-05-14T16:16:26.139Z,10.73
2023-05-14T16:19:28.346Z,9.90
2023-05-14T16:22:32.060Z,9.90
2023-05-14T16:25:34.167Z,11.20
2023-05-14T16:28:36.211Z,9.53
2023-05-14T16:31:38.409Z,9.30
2023-05-14T16:34:40.724Z,9.35
2023-05-14T16:37:43.078Z,8.07
2023-05-14T16:40:45.388Z,8.67
2023-05-14T16:43:47.687Z,7.72
2023-05-14T16:46:49.775Z,9.60
2023-05-14T16:49:51.895Z,9.48
2023-05-14T16:52:53.944Z,9.68
2023-05-14T16:55:56.053Z,8.87
2023-05-14T16:58:58.137Z,9.07
2023-05-14T17:02:00.283Z,8.75
2023-05-14T17:05:02.568Z,8.25
2023-05-14T17:08:05.322Z,8.98
2023-05-14T17:11:07.469Z,8.77
2023-05-14T17:14:09.484Z,9.80
2023-05-14T17:17:11.573Z,9.35
2023-05-14T17:20:16.122Z,9.30
2023-05-14T17:23:19.911Z,11.23
2023-05-14T17:26:22.737Z,11.33
2023-05-14T17:29:24.842Z,11.05
2023-05-14T17:32:27.122Z,11.23
2023-05-14T17:35:29.237Z,12.15
2023-05-14T17:38:31.306Z,9.30
2023-05-14T17:41:33.340Z,10.68
2023-05-14T17:44:36.501Z,10.52
2023-05-14T17:47:38.615Z,10.23
2023-05-14T17:50:40.847Z,11.30
2023-05-14T17:53:42.822Z,11.10
2023-05-14T17:56:44.871Z,10.48
2023-05-14T17:59:46.907Z,9.50
2023-05-14T18:02:48.986Z,8.85
2023-05-14T18:05:51.299Z,9.02
2023-05-14T18:08:53.352Z,11.70
2023-05-14T18:11:56.952Z,10.00
2023-05-14T18:14:59.206Z,9.75
2023-05-14T18:18:01.335Z,10.90
2023-05-14T18:21:03.500Z,10.63
2023-05-14T18:24:05.713Z,9.70
2023-05-14T18:27:08.346Z,9.95
2023-05-14T18:30:16.973Z,11.75
2023-05-14T18:33:19.111Z,18.17
2023-05-14T18:36:21.305Z,14.00
2023-05-14T18:39:23.960Z,10.57
2023-05-14T18:42:26.008Z,9.23
2023-05-14T18:45:28.206Z,9.55
2023-05-14T18:48:30.938Z,9.32
2023-05-14T18:51:32.978Z,8.95
2023-05-14T18:54:35.017Z,9.10
2023-05-14T18:57:37.183Z,9.40
2023-05-14T19:00:39.261Z,8.48
2023-05-14T19:03:42.444Z,8.90
2023-05-14T19:06:44.595Z,8.63
2023-05-14T19:09:46.662Z,8.30
2023-05-14T19:12:49.215Z,8.98
2023-05-14T19:15:51.390Z,8.35
2023-05-14T19:18:53.635Z,8.60
2023-05-14T19:21:55.817Z,8.13
2023-05-14T19:24:57.823Z,9.00
2023-05-14T19:28:01.686Z,8.50
2023-05-14T19:31:04.354Z,7.32
2023-05-14T19:34:06.735Z,8.35
2023-05-14T19:37:09.002Z,8.63
2023-05-14T19:40:11.363Z,8.47
2023-05-14T19:43:13.675Z,7.50
2023-05-14T19:46:15.782Z,7.43
2023-05-14T19:49:17.864Z,7.45
2023-05-14T19:52:19.927Z,7.20
2023-05-14T19:55:21.931Z,7.77
2023-05-14T19:58:24.232Z,6.97
2023-05-14T20:01:26.882Z,7.65
2023-05-14T20:04:29.015Z,7.18
2023-05-14T20:07:32.235Z,6.67
2023-05-14T20:10:34.287Z,7.03
2023-05-14T20:13:36.838Z,7.78
2023-05-14T20:16:39.085Z,7.93
2023-05-14T20:19:41.379Z,6.85
2023-05-14T20:22:44.134Z,7.80
2023-05-14T20:25:46.656Z,8.27
2023-05-14T20:28:48.799Z,9.25
2023-05-14T20:31:50.891Z,7.68
2023-05-14T20:34:52.984Z,7.45
2023-05-14T20:37:55.073Z,7.80
2023-05-14T20:40:57.342Z,7.83
2023-05-14T20:43:59.427Z,7.82
2023-05-14T20:47:01.518Z,7.13
2023-05-14T20:50:04.776Z,7.95
2023-05-14T20:53:06.921Z,7.00
2023-05-14T20:56:09.025Z,8.13
2023-05-14T20:59:11.044Z,7.53
2023-05-14T21:02:13.175Z,7.30
2023-05-14T21:05:16.514Z,8.40
2023-05-14T21:08:18.548Z,6.63
2023-05-14T21:11:22.220Z,7.17
2023-05-14T21:14:24.367Z,7.25
2023-05-14T21:17:26.433Z,6.68
2023-05-14T21:20:28.544Z,6.50
2023-05-14T21:23:30.623Z,6.33
2023-05-14T21:26:32.875Z,7.90
2023-05-14T21:29:34.959Z,7.65
2023-05-14T21:32:37.130Z,6.60
2023-05-14T21:35:39.209Z,6.93
2023-05-14T21:38:41.330Z,7.40
2023-05-14T21:41:43.436Z,7.57
2023-05-14T21:44:45.606Z,8.13
2023-05-14T21:47:47.730Z,8.15
2023-05-14T21:50:49.830Z,8.40
2023-05-14T21:53:51.819Z,8.33
2023-05-14T21:56:53.963Z,8.27
2023-05-14T21:59:55.971Z,8.68
2023-05-14T22:02:58.308Z,8.85
2023-05-14T22:06:00.789Z,7.85
2023-05-14T22:09:02.896Z,8.07
2023-05-14T22:12:06.001Z,8.90
2023-05-14T22:15:08.330Z,8.70
2023-05-14T22:18:10.529Z,9.18
2023-05-14T22:21:12.738Z,8.68
2023-05-14T22:24:14.823Z,9.43
2023-05-14T22:27:17.323Z,8.77
2023-05-14T22:30:19.339Z,9.65
2023-05-14T22:33:21.388Z,9.82
2023-05-14T22:36:23.500Z,10.23
2023-05-14T22:39:25.559Z,9.80
2023-05-14T22:42:28.547Z,10.60
2023-05-14T22:45:30.976Z,9.18
2023-05-14T22:48:33.100Z,9.07
2023-05-14T22:51:35.149Z,8.95
2023-05-14T22:54:37.244Z,9.60
2023-05-14T22:57:39.350Z,8.40
2023-05-14T23:00:41.392Z,9.45
2023-05-14T23:03:43.450Z,9.65
2023-05-14T23:06:45.569Z,9.57
2023-05-14T23:09:47.594Z,9.17
2023-05-14T23:12:49.656Z,9.40
2023-05-14T23:15:51.724Z,8.65
2023-05-14T23:18:53.913Z,8.95
2023-05-14T23:21:56.168Z,9.00
2023-05-14T23:24:58.177Z,8.77
2023-05-14T23:28:00.330Z,9.23
2023-05-14T23:31:02.564Z,9.77
2023-05-14T23:34:04.595Z,9.68
2023-05-14T23:37:06.648Z,9.33
2023-05-14T23:40:09.618Z,9.13
2023-05-14T23:43:11.622Z,9.68
2023-05-14T23:46:13.758Z,10.82
2023-05-14T23:49:15.930Z,11.55
2023-05-14T23:52:17.972Z,11.03
2023-05-14T23:55:20.210Z,10.97
2023-05-14T23:58:22.311Z,11.60
